Time;durP1;ratioP1;P1;durP2;ratioP2;P2;SDS_P1;SDS_P2;PMS_P1;PMS_P2;Temp;Humidity;BMP_temperature;BMP_pressure;BME280_temperature;BME280_humidity;BME280_pressure;Samples;Min_cycle;Max_cycle;Signal;HPM_P1;HPM_P2
2023/02/26 00:02:09;;;;;;;6.30;4.50;;;;;;;1.40;100.00;97987.95;107551;1270;22527;-64
2023/02/26 00:04:37;;;;;;;7.50;5.30;;;;;;;1.45;100.00;97998.84;107287;1274;25287;-64
2023/02/26 00:07:06;;;;;;;6.80;4.90;;;;;;;1.45;100.00;98016.27;107012;1274;25313;-65
2023/02/26 00:09:35;;;;;;;8.40;4.70;;;;;;;1.47;100.00;98027.02;106877;1269;24335;-64
2023/02/26 00:12:04;;;;;;;8.10;4.80;;;;;;;1.53;100.00;98025.98;107476;1276;25379;-65
2023/02/26 00:14:34;;;;;;;8.00;5.20;;;;;;;1.51;100.00;98022.97;107052;1275;25314;-64
2023/02/26 00:17:23;;;;;;;7.10;4.60;;;;;;;1.49;100.00;98019.46;107305;1273;22523;-64
2023/02/26 00:19:53;;;;;;;6.30;4.10;;;;;;;1.53;100.00;98028.27;109338;1273;23028;-65
2023/02/26 00:22:22;;;;;;;7.10;4.90;;;;;;;1.45;100.00;98026.08;110449;1274;23016;-66
2023/02/26 00:24:50;;;;;;;6.60;4.60;;;;;;;1.37;100.00;98023.74;110453;1275;23189;-66
2023/02/26 00:27:19;;;;;;;6.40;4.70;;;;;;;1.34;100.00;98031.92;110410;1274;22406;-66
2023/02/26 00:29:48;;;;;;;7.00;4.90;;;;;;;1.32;100.00;98034.48;110387;1276;22302;-66
2023/02/26 00:32:19;;;;;;;6.90;4.40;;;;;;;1.24;100.00;98020.61;110406;1274;22961;-65
2023/02/26 00:34:49;;;;;;;7.80;4.50;;;;;;;1.19;100.00;98009.75;110446;1275;22977;-66
2023/02/26 00:37:37;;;;;;;7.60;4.50;;;;;;;1.18;100.00;98004.42;110483;1274;22277;-66
2023/02/26 00:40:11;;;;;;;7.50;4.40;;;;;;;1.16;100.00;98008.11;110294;1275;23018;-66
2023/02/26 00:42:46;;;;;;;6.20;4.80;;;;;;;1.11;100.00;98030.52;110420;1275;23066;-66
2023/02/26 00:45:15;;;;;;;6.30;4.50;;;;;;;1.03;100.00;98024.05;110457;1274;22411;-66
2023/02/26 00:47:51;;;;;;;7.10;5.10;;;;;;;0.95;100.00;98027.99;110319;1272;22313;-66
2023/02/26 00:50:21;;;;;;;8.10;4.80;;;;;;;0.95;100.00;98041.92;110313;1275;22193;-66
2023/02/26 00:53:16;;;;;;;6.70;4.80;;;;;;;0.95;100.00;98048.98;110408;1275;22229;-66
2023/02/26 00:55:45;;;;;;;7.10;4.80;;;;;;;0.93;100.00;98062.21;110448;1274;23261;-66
2023/02/26 00:58:14;;;;;;;6.50;4.40;;;;;;;0.89;100.00;98073.03;110304;1276;23325;-66
2023/02/26 01:00:43;;;;;;;7.30;4.40;;;;;;;0.89;100.00;98078.98;110444;1275;22260;-66
2023/02/26 01:03:11;;;;;;;6.80;3.70;;;;;;;0.91;100.00;98077.83;110335;1274;22461;-66
2023/02/26 01:05:39;;;;;;;7.40;4.10;;;;;;;0.88;100.00;98077.15;110362;1273;22212;-66
2023/02/26 01:08:25;;;;;;;6.50;4.10;;;;;;;0.83;100.00;98084.42;110292;1275;22461;-66
2023/02/26 01:10:54;;;;;;;6.10;4.30;;;;;;;0.85;100.00;98085.95;110218;1276;23214;-66
2023/02/26 01:13:22;;;;;;;7.60;4.60;;;;;;;0.86;100.00;98079.15;110395;1270;22273;-66
2023/02/26 01:16:04;;;;;;;5.20;4.10;;;;;;;0.82;100.00;98084.09;110374;1269;22348;-66
2023/02/26 01:19:12;;;;;;;5.70;4.00;;;;;;;0.82;100.00;98087.84;110332;1275;23328;-66
2023/02/26 01:21:43;;;;;;;6.80;4.40;;;;;;;0.84;100.00;98091.61;110368;1274;22429;-66
2023/02/26 01:24:14;;;;;;;5.60;4.30;;;;;;;0.78;100.00;98101.66;110256;1276;22211;-65
2023/02/26 01:26:42;;;;;;;5.70;3.80;;;;;;;0.80;100.00;98111.38;110461;1274;22328;-65
2023/02/26 01:29:11;;;;;;;5.60;3.80;;;;;;;0.82;100.00;98110.92;110296;1271;22377;-66
2023/02/26 01:31:49;;;;;;;6.40;4.10;;;;;;;0.78;100.00;98108.62;110344;1274;23158;-66
2023/02/26 01:34:26;;;;;;;6.10;4.30;;;;;;;0.74;100.00;98110.88;110260;1276;23073;-66
2023/02/26 01:37:02;;;;;;;6.50;3.90;;;;;;;0.75;100.00;98116.03;110401;1274;23129;-65
2023/02/26 01:40:00;;;;;;;4.50;3.60;;;;;;;0.78;100.00;98126.25;110187;1274;23196;-66
2023/02/26 01:42:30;;;;;;;7.40;4.40;;;;;;;0.73;100.00;98127.32;110352;1276;22404;-65
2023/02/26 01:45:09;;;;;;;5.60;4.10;;;;;;;0.73;100.00;98127.46;110349;1274;23271;-65
2023/02/26 01:47:50;;;;;;;6.20;4.10;;;;;;;0.76;100.00;98130.73;110385;1275;22982;-66
2023/02/26 01:50:21;;;;;;;5.50;4.10;;;;;;;0.77;100.00;98132.58;110314;1275;22976;-66
2023/02/26 01:52:49;;;;;;;5.90;3.70;;;;;;;0.73;100.00;98141.55;110379;1275;23709;-65
2023/02/26 01:55:22;;;;;;;6.70;3.60;;;;;;;0.75;100.00;98156.42;110373;1272;23161;-66
2023/02/26 01:57:52;;;;;;;6.70;3.70;;;;;;;0.79;100.00;98168.42;110405;1274;22352;-66
2023/02/26 02:00:21;;;;;;;5.40;3.40;;;;;;;0.75;100.00;98163.77;110433;1275;23090;-66
2023/02/26 02:02:50;;;;;;;5.40;3.40;;;;;;;0.73;100.00;98169.89;110416;1274;22379;-66
2023/02/26 02:05:47;;;;;;;4.90;3.30;;;;;;;0.76;100.00;98178.63;110443;1276;22371;-66
2023/02/26 02:08:16;;;;;;;7.40;3.80;;;;;;;0.78;100.00;98173.39;110274;1275;22941;-66
2023/02/26 02:10:45;;;;;;;5.40;3.60;;;;;;;0.73;100.00;98169.24;110323;1274;22270;-66
2023/02/26 02:13:23;;;;;;;6.70;3.50;;;;;;;0.73;100.00;98167.86;110268;1276;22398;-66
2023/02/26 02:15:57;;;;;;;4.80;3.20;;;;;;;0.78;100.00;98173.51;110395;1276;22185;-66
2023/02/26 02:18:57;;;;;;;5.10;3.30;;;;;;;0.74;100.00;98181.65;110401;1276;22417;-66
2023/02/26 02:21:30;;;;;;;4.70;2.80;;;;;;;0.74;100.00;98180.36;110208;1274;22204;-66
2023/02/26 02:24:12;;;;;;;5.30;3.70;;;;;;;0.77;100.00;98180.25;110298;1276;22600;-66
2023/02/26 02:26:52;;;;;;;6.80;3.20;;;;;;;0.74;100.00;98184.59;110201;1274;22449;-66
2023/02/26 02:29:47;;;;;;;4.70;3.50;;;;;;;0.73;100.00;98183.29;110342;1276;22287;-66
2023/02/26 02:32:27;;;;;;;4.20;3.00;;;;;;;0.77;100.00;98192.19;107493;1276;23614;-65
2023/02/26 02:35:05;;;;;;;6.40;3.90;;;;;;;0.70;100.00;98198.67;106668;1269;22524;-65
2023/02/26 02:37:36;;;;;;;5.10;3.50;;;;;;;0.71;100.00;98206.41;106949;1276;23048;-65
2023/02/26 02:40:17;;;;;;;5.10;3.50;;;;;;;0.73;100.00;98222.67;106922;1275;23877;-65
2023/02/26 02:43:02;;;;;;;;;;;;;;;0.73;100.00;98229.63;106973;1276;23084;-65
2023/02/26 02:45:44;;;;;;;5.80;3.60;;;;;;;0.61;100.00;98225.42;106788;1274;22523;-65
2023/02/26 02:48:39;;;;;;;6.40;3.80;;;;;;;0.55;100.00;98225.05;106953;1274;24276;-65
2023/02/26 02:51:13;;;;;;;5.40;3.30;;;;;;;0.61;100.00;98230.41;106925;1273;25394;-65
2023/02/26 02:53:47;;;;;;;5.50;3.30;;;;;;;0.61;100.00;98225.30;107024;1276;25379;-65
2023/02/26 02:56:26;;;;;;;5.30;3.50;;;;;;;0.59;100.00;98218.91;106955;1267;25327;-65
2023/02/26 02:59:24;;;;;;;4.70;3.00;;;;;;;0.64;100.00;98225.48;106562;1275;24394;-65
2023/02/26 03:02:05;;;;;;;5.40;3.40;;;;;;;0.67;100.00;98224.39;110258;1275;22437;-66
2023/02/26 03:04:34;;;;;;;5.00;3.50;;;;;;;0.65;100.00;98230.30;110215;1274;22226;-65
2023/02/26 03:07:03;;;;;;;5.20;3.30;;;;;;;0.69;100.00;98235.52;110405;1275;22292;-66
2023/02/26 03:09:32;;;;;;;4.30;3.10;;;;;;;0.74;100.00;98238.59;110475;1274;23100;-66
2023/02/26 03:12:01;;;;;;;6.10;3.70;;;;;;;0.74;100.00;98245.77;110410;1275;22191;-66
2023/02/26 03:14:32;;;;;;;5.40;3.50;;;;;;;0.77;100.00;98255.17;110309;1275;22256;-66
2023/02/26 03:17:13;;;;;;;5.60;3.10;;;;;;;0.83;100.00;98257.54;110143;1275;23022;-66
2023/02/26 03:19:56;;;;;;;4.90;3.20;;;;;;;0.82;100.00;98257.89;110294;1275;22365;-66
2023/02/26 03:22:34;;;;;;;5.90;3.00;;;;;;;0.83;100.00;98255.50;110163;1276;22996;-66
2023/02/26 03:25:14;;;;;;;6.00;3.30;;;;;;;0.89;100.00;98262.82;110141;1274;22280;-66
2023/02/26 03:27:49;;;;;;;4.80;3.20;;;;;;;0.90;100.00;98262.61;110364;1275;22254;-66
2023/02/26 03:30:21;;;;;;;4.60;3.30;;;;;;;0.86;100.00;98266.64;110389;1276;22274;-66
2023/02/26 03:32:57;;;;;;;5.50;3.20;;;;;;;0.87;100.00;98270.66;110323;1274;22216;-66
2023/02/26 03:35:47;;;;;;;5.10;3.40;;;;;;;0.92;100.00;98269.98;110316;1274;22218;-66
2023/02/26 03:38:23;;;;;;;4.90;3.20;;;;;;;0.89;100.00;98264.91;110246;1273;22370;-66
2023/02/26 03:41:02;;;;;;;4.90;3.20;;;;;;;0.86;100.00;98274.30;110307;1275;22192;-65
2023/02/26 03:44:04;;;;;;;5.60;3.40;;;;;;;0.91;100.00;98272.28;110323;1274;22276;-66
2023/02/26 03:46:36;;;;;;;4.00;2.80;;;;;;;0.97;100.00;98281.52;110361;1276;22211;-66
2023/02/26 03:49:09;;;;;;;5.40;3.10;;;;;;;0.91;100.00;98294.63;110151;1275;22208;-66
2023/02/26 03:51:39;;;;;;;4.40;3.30;;;;;;;0.89;100.00;98292.29;110282;1275;22257;-65
2023/02/26 03:54:57;;;;;;;5.10;3.30;;;;;;;0.94;100.00;98296.82;110121;1274;22408;-66
2023/02/26 03:58:00;;;;;;;5.90;3.20;;;;;;;0.89;100.00;98303.17;109854;1276;22249;-66
2023/02/26 04:00:43;;;;;;;6.10;3.70;;;;;;;0.82;100.00;98311.45;110272;1272;22707;-66
2023/02/26 04:03:11;;;;;;;4.90;3.40;;;;;;;0.83;100.00;98319.31;110282;1275;22303;-66
2023/02/26 04:05:43;;;;;;;5.20;3.60;;;;;;;0.85;100.00;98322.97;110298;1275;22288;-66
2023/02/26 04:08:11;;;;;;;5.60;4.10;;;;;;;0.81;100.00;98336.05;110141;1276;22272;-66
2023/02/26 04:10:56;;;;;;;5.00;3.80;;;;;;;0.75;100.00;98338.14;110386;1276;22421;-66
2023/02/26 04:15:10;;;;;;;6.70;3.80;;;;;;;0.79;100.00;98339.92;103707;1305;545577;-64
2023/02/26 04:17:38;;;;;;;6.00;3.90;;;;;;;0.73;100.00;98343.89;107382;1289;22701;-65
2023/02/26 04:20:09;;;;;;;5.80;3.90;;;;;;;0.71;100.00;98352.95;109096;1288;22604;-65
2023/02/26 04:22:38;;;;;;;5.80;3.90;;;;;;;0.74;100.00;98348.47;105866;1288;22609;-65
2023/02/26 04:25:06;;;;;;;4.90;3.70;;;;;;;0.74;100.00;98349.90;105743;1288;25438;-64
2023/02/26 04:27:36;;;;;;;5.40;3.50;;;;;;;0.68;100.00;98345.84;105988;1287;22543;-65
2023/02/26 04:30:05;;;;;;;6.10;3.70;;;;;;;0.62;100.00;98350.72;105683;1285;26593;-65
2023/02/26 04:32:34;;;;;;;8.00;4.20;;;;;;;0.64;100.00;98352.77;105995;1286;24422;-64
2023/02/26 04:35:03;;;;;;;5.70;4.10;;;;;;;0.66;100.00;98358.67;109537;1287;22889;-65
2023/02/26 04:37:33;;;;;;;5.70;3.60;;;;;;;0.62;100.00;98369.89;109478;1287;22451;-65
2023/02/26 04:40:01;;;;;;;6.00;4.30;;;;;;;0.57;100.00;98372.59;109538;1287;22269;-65
2023/02/26 04:42:34;;;;;;;5.80;3.50;;;;;;;0.60;100.00;98372.57;109568;1286;22228;-65
2023/02/26 04:45:02;;;;;;;5.70;3.70;;;;;;;0.63;100.00;98378.31;109574;1287;23174;-65
2023/02/26 04:47:31;;;;;;;5.30;3.70;;;;;;;0.61;100.00;98380.52;109514;1286;22574;-65
2023/02/26 04:50:03;;;;;;;5.40;3.80;;;;;;;0.63;100.00;98372.54;109685;1286;23050;-65
2023/02/26 04:52:32;;;;;;;6.00;3.60;;;;;;;0.69;100.00;98369.16;109572;1285;22305;-65
2023/02/26 04:55:01;;;;;;;6.80;3.60;;;;;;;0.70;100.00;98374.70;109507;1286;22397;-65
2023/02/26 04:57:29;;;;;;;5.60;3.80;;;;;;;0.69;100.00;98382.91;109615;1285;22214;-65
2023/02/26 04:59:58;;;;;;;6.00;3.90;;;;;;;0.73;100.00;98394.77;108513;1286;24244;-65
2023/02/26 05:02:30;;;;;;;6.30;3.60;;;;;;;0.78;100.00;98406.75;105680;1285;26091;-64
2023/02/26 05:04:58;;;;;;;5.40;4.00;;;;;;;0.79;100.00;98419.48;106070;1283;26260;-64
2023/02/26 05:07:28;;;;;;;5.20;4.10;;;;;;;0.77;100.00;98432.52;106148;1283;25396;-64
2023/02/26 05:09:56;;;;;;;5.00;4.00;;;;;;;0.79;100.00;98434.81;106238;1280;25408;-65
2023/02/26 05:12:26;;;;;;;6.00;4.20;;;;;;;0.84;100.00;98440.36;106423;1280;25260;-65
2023/02/26 05:14:55;;;;;;;6.50;4.00;;;;;;;0.81;100.00;98441.02;107048;1284;25364;-65
2023/02/26 05:17:24;;;;;;;6.30;4.60;;;;;;;0.76;100.00;98441.17;106556;1284;25435;-65
2023/02/26 05:19:52;;;;;;;6.20;4.10;;;;;;;0.79;100.00;98437.54;106263;1284;25546;-65
2023/02/26 05:22:22;;;;;;;5.70;4.00;;;;;;;0.83;100.00;98445.76;106669;1283;22541;-66
2023/02/26 05:24:51;;;;;;;6.00;4.10;;;;;;;0.80;100.00;98450.52;107320;1284;25376;-66
2023/02/26 05:27:19;;;;;;;5.40;3.90;;;;;;;0.79;100.00;98454.61;106262;1281;25460;-66
2023/02/26 05:29:48;;;;;;;5.90;3.80;;;;;;;0.84;100.00;98456.11;106125;1284;25372;-66
2023/02/26 05:32:17;;;;;;;7.00;4.10;;;;;;;0.88;100.00;98458.60;106247;1283;25432;-65
2023/02/26 05:34:46;;;;;;;7.10;4.40;;;;;;;0.86;100.00;98458.13;106275;1276;26163;-66
2023/02/26 05:37:14;;;;;;;6.80;3.70;;;;;;;0.88;100.00;98465.83;106044;1282;22669;-65
2023/02/26 05:39:44;;;;;;;5.30;4.20;;;;;;;0.94;100.00;98469.96;106026;1283;24203;-65
2023/02/26 05:42:13;;;;;;;5.90;4.00;;;;;;;0.97;100.00;98469.96;109870;1283;22624;-66
2023/02/26 05:44:41;;;;;;;5.80;4.40;;;;;;;0.98;100.00;98468.71;109804;1283;22459;-66
2023/02/26 05:47:10;;;;;;;7.20;4.30;;;;;;;0.98;100.00;98473.00;109792;1285;22255;-66
2023/02/26 05:49:40;;;;;;;5.80;3.80;;;;;;;1.03;100.00;98478.44;109810;1285;22278;-66
2023/02/26 05:52:08;;;;;;;5.20;3.80;;;;;;;1.09;100.00;98484.75;109811;1283;22230;-66
2023/02/26 05:54:37;;;;;;;6.20;4.20;;;;;;;1.10;100.00;98489.65;109865;1283;22223;-66
2023/02/26 05:57:07;;;;;;;6.50;3.80;;;;;;;1.10;100.00;98491.53;109844;1284;22284;-66
2023/02/26 05:59:37;;;;;;;4.70;3.70;;;;;;;1.19;100.00;98487.29;109844;1283;22791;-66
2023/02/26 06:02:05;;;;;;;6.40;4.00;;;;;;;1.25;100.00;98489.81;109848;1284;22292;-66
2023/02/26 06:04:34;;;;;;;5.70;3.80;;;;;;;1.26;100.00;98499.79;109840;1283;22354;-66
2023/02/26 06:07:02;;;;;;;5.70;3.90;;;;;;;1.32;100.00;98509.33;109824;1283;23497;-66
2023/02/26 06:09:31;;;;;;;5.30;3.60;;;;;;;1.40;100.00;98514.31;109823;1284;22194;-66
2023/02/26 06:12:03;;;;;;;5.80;3.90;;;;;;;1.40;100.00;98519.90;109791;1280;22499;-66
2023/02/26 06:14:32;;;;;;;7.70;4.30;;;;;;;1.38;100.00;98526.34;109810;1283;22216;-66
2023/02/26 06:17:05;;;;;;;6.10;3.90;;;;;;;1.43;100.00;98529.81;109812;1283;23034;-66
2023/02/26 06:19:33;;;;;;;8.70;4.00;;;;;;;1.50;100.00;98539.48;109806;1283;22290;-66
2023/02/26 06:22:02;;;;;;;5.70;4.30;;;;;;;1.53;100.00;98542.80;109827;1283;22336;-66
2023/02/26 06:24:30;;;;;;;7.30;4.70;;;;;;;1.53;100.00;98547.46;109848;1284;23314;-65
2023/02/26 06:26:58;;;;;;;6.10;4.00;;;;;;;1.60;100.00;98555.73;109835;1283;23082;-65
2023/02/26 06:29:27;;;;;;;7.30;4.70;;;;;;;1.67;100.00;98561.38;109821;1283;22336;-65
2023/02/26 06:31:56;;;;;;;6.40;4.20;;;;;;;1.67;100.00;98572.20;109821;1284;22382;-65
2023/02/26 06:34:25;;;;;;;7.90;4.40;;;;;;;1.67;100.00;98579.08;109820;1284;22588;-65
2023/02/26 06:36:53;;;;;;;6.60;4.40;;;;;;;1.70;100.00;98582.67;110026;1279;22291;-65
2023/02/26 06:39:21;;;;;;;5.10;4.10;;;;;;;1.77;100.00;98595.36;110045;1279;22240;-65
2023/02/26 06:41:50;;;;;;;6.10;4.40;;;;;;;1.79;100.00;98605.06;110052;1279;22414;-65
2023/02/26 06:44:18;;;;;;;7.00;4.50;;;;;;;1.82;100.00;98609.17;110029;1279;22970;-65
2023/02/26 06:46:46;;;;;;;6.70;4.30;;;;;;;1.89;100.00;98612.21;110063;1279;22198;-65
2023/02/26 06:49:19;;;;;;;5.60;4.30;;;;;;;1.96;100.00;98615.55;110048;1279;22974;-65
2023/02/26 06:51:47;;;;;;;6.30;4.50;;;;;;;1.97;100.00;98620.02;110050;1278;23218;-65
2023/02/26 06:54:16;;;;;;;7.00;4.60;;;;;;;1.92;100.00;98619.86;107196;1279;25363;-65
2023/02/26 06:56:45;;;;;;;5.20;3.90;;;;;;;1.94;100.00;98627.04;106705;1279;25309;-64
2023/02/26 06:59:14;;;;;;;6.80;4.60;;;;;;;1.94;100.00;98632.78;107101;1274;28155;-64
2023/02/26 07:01:42;;;;;;;5.80;4.50;;;;;;;1.92;100.00;98636.04;107966;1279;25109;-64
2023/02/26 07:04:10;;;;;;;9.40;4.70;;;;;;;1.95;100.00;98631.69;107163;1279;22549;-63
2023/02/26 07:06:39;;;;;;;7.80;4.10;;;;;;;2.03;100.00;98639.86;106517;1279;25354;-65
2023/02/26 07:09:08;;;;;;;6.50;4.70;;;;;;;2.02;100.00;98640.91;110025;1279;22373;-65
2023/02/26 07:11:39;;;;;;;7.30;5.00;;;;;;;2.00;100.00;98644.21;110066;1279;22988;-65
2023/02/26 07:14:07;;;;;;;7.60;4.60;;;;;;;2.04;100.00;98650.84;110051;1279;22308;-65
2023/02/26 07:16:36;;;;;;;7.30;4.50;;;;;;;2.10;100.00;98649.21;110059;1279;22283;-65
2023/02/26 07:19:04;;;;;;;9.10;5.50;;;;;;;2.10;100.00;98649.36;110017;1279;22225;-65
2023/02/26 07:21:33;;;;;;;8.60;5.10;;;;;;;2.11;100.00;98648.37;110067;1279;22196;-65
2023/02/26 07:24:01;;;;;;;7.40;4.80;;;;;;;2.17;100.00;98650.28;110012;1279;22253;-65
2023/02/26 07:26:29;;;;;;;7.40;5.30;;;;;;;2.24;100.00;98647.67;110041;1279;22712;-65
2023/02/26 07:28:57;;;;;;;6.90;5.00;;;;;;;2.27;100.00;98656.80;110046;1279;23919;-65
2023/02/26 07:31:26;;;;;;;6.90;5.50;;;;;;;2.29;100.00;98656.34;110056;1279;22208;-65
2023/02/26 07:33:55;;;;;;;8.40;5.30;;;;;;;2.34;100.00;98660.19;110050;1279;23112;-65
2023/02/26 07:36:23;;;;;;;7.50;5.30;;;;;;;2.40;100.00;98664.64;107075;1278;24445;-65
2023/02/26 07:38:52;;;;;;;7.10;5.40;;;;;;;2.39;100.00;98663.86;106673;1278;23913;-64
2023/02/26 07:41:20;;;;;;;8.20;5.60;;;;;;;2.40;100.00;98666.84;106688;1278;25347;-64
2023/02/26 07:43:49;;;;;;;8.70;5.40;;;;;;;2.48;100.00;98666.96;106742;1278;25255;-64
2023/02/26 07:46:17;;;;;;;7.70;5.60;;;;;;;2.57;100.00;98671.44;106541;1255;22626;-64
2023/02/26 07:48:46;;;;;;;7.60;5.70;;;;;;;2.57;100.00;98671.23;107084;1278;25384;-64
2023/02/26 07:51:14;;;;;;;8.00;5.80;;;;;;;2.57;100.00;98673.42;107257;1278;25386;-64
2023/02/26 07:53:43;;;;;;;7.70;5.60;;;;;;;2.61;100.00;98678.55;107018;1274;25513;-64
2023/02/26 07:56:11;;;;;;;7.30;5.40;;;;;;;2.69;100.00;98690.75;106970;1278;25401;-64
2023/02/26 07:58:41;;;;;;;7.70;5.80;;;;;;;2.71;100.00;98692.60;106624;1270;23272;-64
2023/02/26 08:01:09;;;;;;;6.60;5.40;;;;;;;2.73;100.00;98688.19;107634;1278;24127;-65
2023/02/26 08:03:39;;;;;;;6.60;5.10;;;;;;;2.81;100.00;98684.92;106471;1278;22626;-64
2023/02/26 08:06:08;;;;;;;7.30;5.50;;;;;;;2.89;100.00;98693.74;106460;1278;26519;-64
2023/02/26 08:08:38;;;;;;;8.00;5.90;;;;;;;2.90;100.00;98694.52;106428;1278;25399;-64
2023/02/26 08:11:07;;;;;;;8.20;5.20;;;;;;;2.92;100.00;98694.73;106595;1278;25358;-65
2023/02/26 08:13:35;;;;;;;7.10;5.30;;;;;;;2.98;100.00;98695.02;110175;1277;23043;-65
2023/02/26 08:16:04;;;;;;;8.00;5.70;;;;;;;3.01;100.00;98696.39;110172;1274;22432;-65
2023/02/26 08:18:33;;;;;;;8.10;5.80;;;;;;;3.05;100.00;98691.33;110172;1273;22292;-64
2023/02/26 08:21:01;;;;;;;7.00;5.20;;;;;;;3.10;100.00;98689.95;110181;1278;22227;-65
2023/02/26 08:23:29;;;;;;;6.80;5.50;;;;;;;3.17;100.00;98685.14;110166;1275;22286;-65
2023/02/26 08:26:06;;;;;;;7.20;5.50;;;;;;;3.24;100.00;98681.15;110209;1278;22439;-65
2023/02/26 08:28:34;;;;;;;9.00;6.30;;;;;;;3.30;100.00;98676.17;110291;1276;22214;-65
2023/02/26 08:31:03;;;;;;;7.10;5.50;;;;;;;3.41;100.00;98690.61;110354;1276;23215;-65
2023/02/26 08:33:34;;;;;;;8.60;5.90;;;;;;;3.47;100.00;98692.69;110231;1278;22292;-65
2023/02/26 08:36:02;;;;;;;7.40;5.70;;;;;;;3.50;100.00;98693.64;110211;1278;22335;-64
2023/02/26 08:38:31;;;;;;;9.30;6.50;;;;;;;3.53;100.00;98699.95;110050;1275;22208;-65
2023/02/26 08:40:59;;;;;;;9.80;7.00;;;;;;;3.52;100.00;98700.60;106798;1277;26320;-65
2023/02/26 08:43:28;;;;;;;13.20;8.90;;;;;;;3.61;100.00;98706.95;107047;1277;23391;-65
2023/02/26 08:45:58;;;;;;;22.90;14.30;;;;;;;3.67;100.00;98710.67;106568;1272;25375;-65
2023/02/26 08:48:26;;;;;;;45.40;27.60;;;;;;;3.69;100.00;98713.27;106639;1273;25812;-64
2023/02/26 08:50:55;;;;;;;31.20;20.50;;;;;;;3.76;100.00;98716.00;107738;1276;26531;-65
2023/02/26 08:53:23;;;;;;;19.90;15.80;;;;;;;3.87;100.00;98715.73;107648;1277;26660;-65
2023/02/26 08:55:52;;;;;;;14.50;9.80;;;;;;;4.00;100.00;98708.77;106502;1277;25380;-65
2023/02/26 08:58:21;;;;;;;8.60;6.20;;;;;;;4.06;100.00;98718.31;106497;1270;22558;-65
2023/02/26 09:00:49;;;;;;;9.10;7.40;;;;;;;4.05;100.00;98722.33;106522;1270;25344;-65
2023/02/26 09:03:19;;;;;;;9.60;6.40;;;;;;;4.07;100.00;98728.77;107583;1272;26539;-64
2023/02/26 09:05:47;;;;;;;8.00;5.60;;;;;;;4.22;100.00;98726.75;110170;1270;22234;-65
2023/02/26 09:08:16;;;;;;;8.40;6.20;;;;;;;4.33;100.00;98732.58;110185;1276;22429;-64
2023/02/26 09:10:44;;;;;;;10.20;7.10;;;;;;;4.38;100.00;98728.48;110259;1272;22314;-64
2023/02/26 09:13:12;;;;;;;10.60;7.40;;;;;;;4.40;100.00;98730.48;110104;1272;22491;-64
2023/02/26 09:15:41;;;;;;;8.80;5.90;;;;;;;4.46;100.00;98735.93;110190;1270;23124;-65
2023/02/26 09:18:14;;;;;;;8.50;6.70;;;;;;;4.53;100.00;98739.53;109973;1278;22192;-65
2023/02/26 09:20:43;;;;;;;8.20;6.40;;;;;;;4.56;100.00;98744.52;110190;1278;22300;-65
2023/02/26 09:23:12;;;;;;;7.30;6.20;;;;;;;4.57;100.00;98751.26;110186;1273;22386;-64
2023/02/26 09:25:40;;;;;;;7.40;5.70;;;;;;;4.59;100.00;98759.00;110160;1278;22873;-65
2023/02/26 09:28:08;;;;;;;8.00;5.80;;;;;;;4.70;100.00;98763.56;110167;1277;22810;-64
2023/02/26 09:30:38;;;;;;;7.70;5.60;;;;;;;4.80;100.00;98767.15;110238;1277;22388;-65
2023/02/26 09:33:06;;;;;;;8.30;6.10;;;;;;;4.83;100.00;98769.17;110227;1278;22295;-64
2023/02/26 09:35:36;;;;;;;9.10;6.20;;;;;;;4.93;100.00;98771.52;110186;1278;22265;-64
2023/02/26 09:38:04;;;;;;;8.50;5.80;;;;;;;5.05;100.00;98772.68;110322;1270;22293;-64
2023/02/26 09:40:39;;;;;;;8.40;5.90;;;;;;;5.18;100.00;98772.50;110323;1269;22365;-65
2023/02/26 09:43:14;;;;;;;9.40;7.00;;;;;;;5.34;100.00;98770.39;110379;1269;22172;-65
2023/02/26 09:45:44;;;;;;;11.20;8.20;;;;;;;5.51;100.00;98767.02;110175;1275;22320;-64
2023/02/26 09:48:15;;;;;;;8.50;6.80;;;;;;;5.68;100.00;98771.27;110329;1273;22206;-65
2023/02/26 09:50:55;;;;;;;8.40;6.10;;;;;;;5.82;100.00;98770.70;110242;1275;22534;-66
2023/02/26 09:53:50;;;;;;;9.30;6.50;;;;;;;5.92;100.00;98773.34;110114;1275;22852;-66
2023/02/26 09:56:21;;;;;;;7.10;5.70;;;;;;;6.06;100.00;98777.77;110418;1274;22219;-64
2023/02/26 09:58:52;;;;;;;7.70;6.10;;;;;;;6.03;100.00;98780.99;110067;1267;22473;-66
2023/02/26 10:01:30;;;;;;;8.70;6.90;;;;;;;5.93;100.00;98780.21;110382;1269;22274;-65
2023/02/26 10:04:22;;;;;;;10.50;7.50;;;;;;;5.81;100.00;98779.92;110331;1267;22259;-65
2023/02/26 10:07:14;;;;;;;12.70;8.80;;;;;;;5.75;100.00;98775.67;110216;1274;22189;-64
2023/02/26 10:10:01;;;;;;;11.50;8.70;;;;;;;5.65;100.00;98767.81;110281;1270;23382;-64
2023/02/26 10:12:31;;;;;;;10.40;7.70;;;;;;;5.50;100.00;98767.45;110372;1267;22424;-64
2023/02/26 10:15:27;;;;;;;10.20;7.30;;;;;;;5.44;100.00;98767.92;110236;1274;22483;-65
2023/02/26 10:18:01;;;;;;;8.20;5.50;;;;;;;5.47;100.00;98763.83;110290;1271;22299;-64
2023/02/26 10:20:57;;;;;;;9.80;7.80;;;;;;;5.48;100.00;98768.25;110379;1274;22514;-65
2023/02/26 10:23:31;;;;;;;7.70;6.10;;;;;;;5.45;100.00;98771.25;110267;1271;23441;-64
2023/02/26 10:26:13;;;;;;;6.30;5.30;;;;;;;5.45;100.00;98773.53;110187;1272;22341;-64
2023/02/26 10:29:01;;;;;;;7.60;5.60;;;;;;;5.49;100.00;98778.58;110413;1274;23391;-65
2023/02/26 10:31:48;;;;;;;8.60;6.30;;;;;;;5.58;100.00;98775.98;110255;1270;22411;-64
2023/02/26 10:34:25;;;;;;;7.40;5.50;;;;;;;5.59;100.00;98778.41;110381;1273;22276;-65
2023/02/26 10:37:18;;;;;;;7.60;5.70;;;;;;;5.56;100.00;98779.86;110191;1268;23262;-64
2023/02/26 10:39:51;;;;;;;7.10;5.60;;;;;;;5.59;100.00;98781.11;110384;1274;22454;-65
2023/02/26 10:42:29;;;;;;;6.30;4.90;;;;;;;5.67;100.00;98783.69;110224;1274;22432;-65
2023/02/26 10:45:22;;;;;;;;;;;;;;;5.73;100.00;98789.77;110222;1271;22435;-65
2023/02/26 10:48:09;;;;;;;7.00;5.30;;;;;;;5.70;100.00;98790.19;110364;1271;22576;-65
2023/02/26 10:50:38;;;;;;;7.20;5.60;;;;;;;5.66;100.00;98791.67;110367;1275;22203;-65
2023/02/26 10:53:08;;;;;;;7.70;5.80;;;;;;;5.64;100.00;98791.28;110247;1275;22378;-64
2023/02/26 10:55:58;;;;;;;7.00;5.70;;;;;;;5.67;100.00;98792.38;110218;1272;22430;-65
2023/02/26 10:58:30;;;;;;;6.80;4.80;;;;;;;5.69;100.00;98790.99;110207;1274;22453;-65
2023/02/26 11:00:59;;;;;;;8.00;6.40;;;;;;;5.66;100.00;98793.18;110266;1270;22334;-65
2023/02/26 11:03:40;;;;;;;8.30;6.80;;;;;;;5.58;100.00;98789.52;110322;1275;23512;-64
2023/02/26 11:06:09;;;;;;;7.70;6.10;;;;;;;5.57;100.00;98798.22;110180;1275;22217;-65
2023/02/26 11:08:45;;;;;;;6.50;5.40;;;;;;;5.65;100.00;98801.23;110113;1275;23024;-65
2023/02/26 11:11:40;;;;;;;6.70;5.10;;;;;;;5.74;100.00;98803.96;110233;1274;22180;-65
2023/02/26 11:14:10;;;;;;;6.90;4.90;;;;;;;5.76;100.00;98803.81;110369;1269;22451;-65
2023/02/26 11:16:50;;;;;;;6.10;5.10;;;;;;;5.77;100.00;98806.52;110378;1275;22485;-66
2023/02/26 11:19:24;;;;;;;5.50;4.50;;;;;;;5.81;100.00;98806.38;110236;1271;22975;-65
2023/02/26 11:21:52;;;;;;;6.80;4.70;;;;;;;5.80;100.00;98806.77;110369;1275;22479;-65
2023/02/26 11:24:36;;;;;;;6.50;4.80;;;;;;;5.77;100.00;98811.92;110376;1275;22318;-66
2023/02/26 11:27:10;;;;;;;6.30;4.30;;;;;;;5.88;100.00;98817.72;110282;1275;22291;-66
2023/02/26 11:29:40;;;;;;;6.30;5.10;;;;;;;6.03;100.00;98822.39;110269;1274;22419;-65
2023/02/26 11:32:19;;;;;;;7.00;5.60;;;;;;;6.08;100.00;98827.48;110413;1275;22325;-65
2023/02/26 11:34:50;;;;;;;6.80;5.20;;;;;;;6.12;100.00;98829.66;110298;1274;22268;-65
2023/02/26 11:37:23;;;;;;;7.00;6.00;;;;;;;6.09;100.00;98830.36;110406;1273;22505;-65
2023/02/26 11:40:04;;;;;;;7.00;5.50;;;;;;;6.08;100.00;98840.23;110452;1273;22340;-65
2023/02/26 11:42:42;;;;;;;9.20;6.90;;;;;;;6.15;100.00;98844.16;110379;1274;23213;-65
2023/02/26 11:45:16;;;;;;;8.20;6.00;;;;;;;6.16;100.00;98846.59;110269;1252;22425;-65
2023/02/26 11:47:45;;;;;;;6.70;5.10;;;;;;;6.08;100.00;98846.14;110367;1275;22426;-65
2023/02/26 11:50:16;;;;;;;6.90;5.00;;;;;;;6.07;100.00;98841.70;110366;1275;23094;-66
2023/02/26 11:52:53;;;;;;;7.60;6.30;;;;;;;6.09;100.00;98845.87;110262;1269;22474;-66
2023/02/26 11:55:31;;;;;;;7.50;5.80;;;;;;;6.15;100.00;98844.05;110383;1273;22388;-64